sensor_id;sensor_type;location;lat;lon;timestamp;P1;P2;P0
74432;PMS7003;62865;53.146;23.172;2023-02-28T00:01:45;37.4;31.8;18.4
74432;PMS7003;62865;53.146;23.172;2023-02-28T00:06:39;43.2;35.6;19.8
74432;PMS7003;62865;53.146;23.172;2023-02-28T00:11:53;37.8;28.8;17.8
74432;PMS7003;62865;53.146;23.172;2023-02-28T00:16:45;28.6;22.8;14.8
74432;PMS7003;62865;53.146;23.172;2023-02-28T00:21:19;29;23.2;14.4
74432;PMS7003;62865;53.146;23.172;2023-02-28T00:26:33;32.2;24.6;14.4
74432;PMS7003;62865;53.146;23.172;2023-02-28T00:31:25;25.6;20.4;13.4
74432;PMS7003;62865;53.146;23.172;2023-02-28T00:36:19;27.8;23;15.6
74432;PMS7003;62865;53.146;23.172;2023-02-28T00:41:31;26.4;22.2;13.2
74432;PMS7003;62865;53.146;23.172;2023-02-28T00:46:19;24.4;20.6;13
74432;PMS7003;62865;53.146;23.172;2023-02-28T00:51:33;23.2;19;12
74432;PMS7003;62865;53.146;23.172;2023-02-28T00:56:27;23.6;19.2;12.2
74432;PMS7003;62865;53.146;23.172;2023-02-28T01:01:45;25.2;21;12.8
74432;PMS7003;62865;53.146;23.172;2023-02-28T01:06:45;30.2;22.6;14
74432;PMS7003;62865;53.146;23.172;2023-02-28T01:11:19;31.8;25.4;16
74432;PMS7003;62865;53.146;23.172;2023-02-28T01:16:19;33.4;29.6;17
74432;PMS7003;62865;53.146;23.172;2023-02-28T01:21:27;28.6;21.8;13.8
74432;PMS7003;62865;53.146;23.172;2023-02-28T01:26:20;31;24.6;14.6
74432;PMS7003;62865;53.146;23.172;2023-02-28T01:31:19;33.6;26.2;16
74432;PMS7003;62865;53.146;23.172;2023-02-28T01:36:20;30.2;24.2;13.4
74432;PMS7003;62865;53.146;23.172;2023-02-28T01:41:20;27;24.4;15.4
74432;PMS7003;62865;53.146;23.172;2023-02-28T01:46:43;30.6;24.8;15
74432;PMS7003;62865;53.146;23.172;2023-02-28T01:51:33;23.6;20.8;13
74432;PMS7003;62865;53.146;23.172;2023-02-28T01:56:26;23.8;19.6;11.4
74432;PMS7003;62865;53.146;23.172;2023-02-28T02:01:19;27.4;21.2;12.4
74432;PMS7003;62865;53.146;23.172;2023-02-28T02:06:34;24.8;19.4;13
74432;PMS7003;62865;53.146;23.172;2023-02-28T02:11:31;25.4;22;13.8
74432;PMS7003;62865;53.146;23.172;2023-02-28T02:16:23;28.2;21.2;13.2
74432;PMS7003;62865;53.146;23.172;2023-02-28T02:21:37;26;22.8;14
74432;PMS7003;62865;53.146;23.172;2023-02-28T02:26:49;30.2;26;15
74432;PMS7003;62865;53.146;23.172;2023-02-28T02:31:38;37;27.6;17.4
74432;PMS7003;62865;53.146;23.172;2023-02-28T02:36:45;37.4;31.8;19.4
74432;PMS7003;62865;53.146;23.172;2023-02-28T02:41:22;38.8;32;19.5
74432;PMS7003;62865;53.146;23.172;2023-02-28T02:46:40;36.6;30.4;19
74432;PMS7003;62865;53.146;23.172;2023-02-28T02:51:33;41.4;36.8;23
74432;PMS7003;62865;53.146;23.172;2023-02-28T02:56:21;42.2;34.6;22.4
74432;PMS7003;62865;53.146;23.172;2023-02-28T03:01:25;48;37;21.6
74432;PMS7003;62865;53.146;23.172;2023-02-28T03:07:07;35.4;30.8;18.6
74432;PMS7003;62865;53.146;23.172;2023-02-28T03:11:19;39.6;33.4;19.6
74432;PMS7003;62865;53.146;23.172;2023-02-28T03:16:23;36.4;29.8;17.8
74432;PMS7003;62865;53.146;23.172;2023-02-28T03:21:34;36.8;32;19
74432;PMS7003;62865;53.146;23.172;2023-02-28T03:26:27;34.6;28.8;17.8
74432;PMS7003;62865;53.146;23.172;2023-02-28T03:31:20;40.6;32.8;19.4
74432;PMS7003;62865;53.146;23.172;2023-02-28T03:36:19;39;32.2;19.4
74432;PMS7003;62865;53.146;23.172;2023-02-28T03:41:20;41.4;34;19
74432;PMS7003;62865;53.146;23.172;2023-02-28T03:46:20;39.6;31;17.4
74432;PMS7003;62865;53.146;23.172;2023-02-28T03:51:19;45.6;37.6;19
74432;PMS7003;62865;53.146;23.172;2023-02-28T03:56:34;46.4;35.2;20.6
74432;PMS7003;62865;53.146;23.172;2023-02-28T04:01:38;44.6;36.2;20.6
74432;PMS7003;62865;53.146;23.172;2023-02-28T04:06:33;47.2;38.4;24.4
74432;PMS7003;62865;53.146;23.172;2023-02-28T04:11:34;41.2;35.2;21
74432;PMS7003;62865;53.146;23.172;2023-02-28T04:16:55;41.8;35;19
74432;PMS7003;62865;53.146;23.172;2023-02-28T04:21:34;45;37.6;22.8
74432;PMS7003;62865;53.146;23.172;2023-02-28T04:26:52;46.8;37.2;20.8
74432;PMS7003;62865;53.146;23.172;2023-02-28T04:31:19;44.8;39.8;21.8
74432;PMS7003;62865;53.146;23.172;2023-02-28T04:36:19;42.4;34.2;20.8
74432;PMS7003;62865;53.146;23.172;2023-02-28T04:41:27;37.8;31;17.6
74432;PMS7003;62865;53.146;23.172;2023-02-28T04:46:19;37;30.8;18
74432;PMS7003;62865;53.146;23.172;2023-02-28T04:51:29;35.2;27.8;17.4
74432;PMS7003;62865;53.146;23.172;2023-02-28T04:56:17;39.4;32.4;19.2
74432;PMS7003;62865;53.146;23.172;2023-02-28T05:01:45;39.8;33.8;19
74432;PMS7003;62865;53.146;23.172;2023-02-28T05:06:17;40.4;32.8;20
74432;PMS7003;62865;53.146;23.172;2023-02-28T05:11:33;36;30.4;17.4
74432;PMS7003;62865;53.146;23.172;2023-02-28T05:16:29;35;28.8;17.4
74432;PMS7003;62865;53.146;23.172;2023-02-28T05:21:32;36.6;30;18
74432;PMS7003;62865;53.146;23.172;2023-02-28T05:26:33;27.4;21;14
74432;PMS7003;62865;53.146;23.172;2023-02-28T05:31:25;30.2;25.6;15.4
74432;PMS7003;62865;53.146;23.172;2023-02-28T05:36:33;31.8;26;14.2
74432;PMS7003;62865;53.146;23.172;2023-02-28T05:41:23;32.8;25.6;16
74432;PMS7003;62865;53.146;23.172;2023-02-28T05:46:29;30;25;16.6
74432;PMS7003;62865;53.146;23.172;2023-02-28T05:51:17;38.2;30.6;17.2
74432;PMS7003;62865;53.146;23.172;2023-02-28T05:56:17;43.4;36;21
74432;PMS7003;62865;53.146;23.172;2023-02-28T06:01:44;39.8;32.6;19.8
74432;PMS7003;62865;53.146;23.172;2023-02-28T06:06:35;41.4;35.8;22.2
74432;PMS7003;62865;53.146;23.172;2023-02-28T06:11:17;39.2;29.8;17.8
74432;PMS7003;62865;53.146;23.172;2023-02-28T06:16:17;45.8;40.2;25.6
74432;PMS7003;62865;53.146;23.172;2023-02-28T06:21:25;57.6;44.2;27.2
74432;PMS7003;62865;53.146;23.172;2023-02-28T06:26:43;58.2;45.2;28.6
74432;PMS7003;62865;53.146;23.172;2023-02-28T06:31:29;58.2;46.8;28
74432;PMS7003;62865;53.146;23.172;2023-02-28T06:36:17;58.4;49;28.4
74432;PMS7003;62865;53.146;23.172;2023-02-28T06:41:29;56.4;46.2;28
74432;PMS7003;62865;53.146;23.172;2023-02-28T06:46:39;59.2;46;27.8
74432;PMS7003;62865;53.146;23.172;2023-02-28T06:51:18;54.6;43.2;26.2
74432;PMS7003;62865;53.146;23.172;2023-02-28T06:56:17;54.6;44.2;25.4
74432;PMS7003;62865;53.146;23.172;2023-02-28T07:01:43;53.8;42.6;26
74432;PMS7003;62865;53.146;23.172;2023-02-28T07:06:17;44;36.8;21.4
74432;PMS7003;62865;53.146;23.172;2023-02-28T07:11:17;34.6;30.2;18.8
74432;PMS7003;62865;53.146;23.172;2023-02-28T07:16:31;34.4;28.6;17.8
74432;PMS7003;62865;53.146;23.172;2023-02-28T07:21:29;32.6;27;17.2
74432;PMS7003;62865;53.146;23.172;2023-02-28T07:26:31;36.2;25.8;15.8
74432;PMS7003;62865;53.146;23.172;2023-02-28T07:31:37;27.4;22.6;13.6
74432;PMS7003;62865;53.146;23.172;2023-02-28T07:36:37;29.4;24.2;13.8
74432;PMS7003;62865;53.146;23.172;2023-02-28T07:41:31;26.4;22.8;14.4
74432;PMS7003;62865;53.146;23.172;2023-02-28T07:46:17;29.6;22.8;15.4
74432;PMS7003;62865;53.146;23.172;2023-02-28T07:51:29;25.3;21.5;13.3
74432;PMS7003;62865;53.146;23.172;2023-02-28T07:56:37;22.6;19.6;11.8
74432;PMS7003;62865;53.146;23.172;2023-02-28T08:01:17;23;18.6;12
74432;PMS7003;62865;53.146;23.172;2023-02-28T08:06:43;20;16.6;9.6
74432;PMS7003;62865;53.146;23.172;2023-02-28T08:11:17;19;15.2;9.2
74432;PMS7003;62865;53.146;23.172;2023-02-28T08:16:17;19.8;16.8;9.8
74432;PMS7003;62865;53.146;23.172;2023-02-28T08:21:17;18.2;13.8;8.8
74432;PMS7003;62865;53.146;23.172;2023-02-28T08:26:25;14.4;12.4;7.2
74432;PMS7003;62865;53.146;23.172;2023-02-28T08:31:31;15;11;8.2
74432;PMS7003;62865;53.146;23.172;2023-02-28T08:36:25;12.2;10;7
74432;PMS7003;62865;53.146;23.172;2023-02-28T08:41:29;15.2;11.2;6.8
74432;PMS7003;62865;53.146;23.172;2023-02-28T08:46:17;16;12.6;8.2
74432;PMS7003;62865;53.146;23.172;2023-02-28T08:51:38;14.4;12.2;7.8
74432;PMS7003;62865;53.146;23.172;2023-02-28T08:56:29;13.2;11.6;7.2
74432;PMS7003;62865;53.146;23.172;2023-02-28T09:01:37;11.4;10.2;5.6
74432;PMS7003;62865;53.146;23.172;2023-02-28T09:06:29;10.4;9.6;6.2
74432;PMS7003;62865;53.146;23.172;2023-02-28T09:11:37;13.2;9.6;5.8
74432;PMS7003;62865;53.146;23.172;2023-02-28T09:16:17;12.2;9.4;6
74432;PMS7003;62865;53.146;23.172;2023-02-28T09:21:43;10.6;8.8;6.2
74432;PMS7003;62865;53.146;23.172;2023-02-28T09:26:37;11;10.2;6
74432;PMS7003;62865;53.146;23.172;2023-02-28T09:31:29;12;8.2;5.6
74432;PMS7003;62865;53.146;23.172;2023-02-28T09:36:26;10.2;8.6;6.2
74432;PMS7003;62865;53.146;23.172;2023-02-28T09:41:38;10.2;7.6;5.2
74432;PMS7003;62865;53.146;23.172;2023-02-28T09:46:27;10.4;8.2;4.8
74432;PMS7003;62865;53.146;23.172;2023-02-28T09:51:23;8;6.8;4.4
74432;PMS7003;62865;53.146;23.172;2023-02-28T09:56:43;9;7.2;4.2
74432;PMS7003;62865;53.146;23.172;2023-02-28T10:01:31;8;6.6;3.6
74432;PMS7003;62865;53.146;23.172;2023-02-28T10:06:26;8.6;7.2;4.8
74432;PMS7003;62865;53.146;23.172;2023-02-28T10:11:29;7.8;6.8;5
74432;PMS7003;62865;53.146;23.172;2023-02-28T10:16:31;9.6;8.2;5.8
74432;PMS7003;62865;53.146;23.172;2023-02-28T10:21:19;10.4;7.8;5.6
74432;PMS7003;62865;53.146;23.172;2023-02-28T10:26:17;11.4;9.4;6.4
74432;PMS7003;62865;53.146;23.172;2023-02-28T10:31:18;12;10.6;6.8
74432;PMS7003;62865;53.146;23.172;2023-02-28T10:36:19;12.8;9.6;6.6
74432;PMS7003;62865;53.146;23.172;2023-02-28T10:41:27;11.6;9.4;5.4
74432;PMS7003;62865;53.146;23.172;2023-02-28T10:46:43;10.8;9.6;6.8
74432;PMS7003;62865;53.146;23.172;2023-02-28T10:51:27;11.6;11;7
74432;PMS7003;62865;53.146;23.172;2023-02-28T10:57:08;10.8;8.8;5.4
74432;PMS7003;62865;53.146;23.172;2023-02-28T11:01:19;11.4;9;6.4
74432;PMS7003;62865;53.146;23.172;2023-02-28T11:06:18;10.8;8.8;6.2
74432;PMS7003;62865;53.146;23.172;2023-02-28T11:11:17;10.2;8.6;5.8
74432;PMS7003;62865;53.146;23.172;2023-02-28T11:16:31;10.4;9;6
74432;PMS7003;62865;53.146;23.172;2023-02-28T11:21:20;12;8;5.4
74432;PMS7003;62865;53.146;23.172;2023-02-28T11:26:34;8.8;7.8;4.6
74432;PMS7003;62865;53.146;23.172;2023-02-28T11:31:25;9;6.8;4.6
74432;PMS7003;62865;53.146;23.172;2023-02-28T11:36:31;10.2;6.8;5
74432;PMS7003;62865;53.146;23.172;2023-02-28T11:41:22;7.6;6.6;4.4
74432;PMS7003;62865;53.146;23.172;2023-02-28T11:46:46;9.4;7;4.6
74432;PMS7003;62865;53.146;23.172;2023-02-28T11:51:32;10.4;8.4;4.8
74432;PMS7003;62865;53.146;23.172;2023-02-28T11:56:38;9.6;8.6;5.6
74432;PMS7003;62865;53.146;23.172;2023-02-28T12:01:48;11.2;9;6
74432;PMS7003;62865;53.146;23.172;2023-02-28T12:06:19;10.6;8;5.6
74432;PMS7003;62865;53.146;23.172;2023-02-28T12:11:23;11;8.6;5.8
74432;PMS7003;62865;53.146;23.172;2023-02-28T12:16:33;10.4;8.8;5.6
74432;PMS7003;62865;53.146;23.172;2023-02-28T12:21:44;11.8;10;6.4
74432;PMS7003;62865;53.146;23.172;2023-02-28T12:26:19;11.8;10;7
74432;PMS7003;62865;53.146;23.172;2023-02-28T12:31:30;12.6;11;7.4
74432;PMS7003;62865;53.146;23.172;2023-02-28T12:36:27;14.6;10.4;7
74432;PMS7003;62865;53.146;23.172;2023-02-28T12:41:34;11.4;9.8;7
74432;PMS7003;62865;53.146;23.172;2023-02-28T12:46:41;14.4;11.4;7
74432;PMS7003;62865;53.146;23.172;2023-02-28T12:51:31;13;10.4;7.4
74432;PMS7003;62865;53.146;23.172;2023-02-28T12:56:30;13.8;11.5;7.8
74432;PMS7003;62865;53.146;23.172;2023-02-28T13:01:49;12.6;10.6;6.2
74432;PMS7003;62865;53.146;23.172;2023-02-28T13:06:34;11.8;10.8;7.4
74432;PMS7003;62865;53.146;23.172;2023-02-28T13:11:23;17.2;12.4;7.8
74432;PMS7003;62865;53.146;23.172;2023-02-28T13:16:19;14.2;11.4;7.2
74432;PMS7003;62865;53.146;23.172;2023-02-28T13:21:23;11;9.8;6.4
74432;PMS7003;62865;53.146;23.172;2023-02-28T13:27:10;13;10.8;6.8
74432;PMS7003;62865;53.146;23.172;2023-02-28T13:32:38;12.4;10.8;6.6
74432;PMS7003;62865;53.146;23.172;2023-02-28T13:36:23;12;10.2;6.2
74432;PMS7003;62865;53.146;23.172;2023-02-28T13:41:46;15.8;13.4;7.2
74432;PMS7003;62865;53.146;23.172;2023-02-28T13:46:29;15.8;12.8;7.8
74432;PMS7003;62865;53.146;23.172;2023-02-28T13:51:38;13.2;11;6.8
74432;PMS7003;62865;53.146;23.172;2023-02-28T13:56:22;13.4;11.2;7.2
74432;PMS7003;62865;53.146;23.172;2023-02-28T14:01:27;12.2;8.8;6.4
74432;PMS7003;62865;53.146;23.172;2023-02-28T14:06:47;13.8;10.6;6.6
74432;PMS7003;62865;53.146;23.172;2023-02-28T14:11:36;16;12.8;7.2
74432;PMS7003;62865;53.146;23.172;2023-02-28T14:16:20;10.8;9.8;6.6
74432;PMS7003;62865;53.146;23.172;2023-02-28T14:21:58;15.4;12.4;7.4
74432;PMS7003;62865;53.146;23.172;2023-02-28T14:26:28;15.4;12.2;8
74432;PMS7003;62865;53.146;23.172;2023-02-28T14:31:22;15;12.2;7.4
74432;PMS7003;62865;53.146;23.172;2023-02-28T14:36:20;14;10;6.6
74432;PMS7003;62865;53.146;23.172;2023-02-28T14:41:21;12.4;9.6;6.8
74432;PMS7003;62865;53.146;23.172;2023-02-28T14:46:19;12.6;10.2;6.6
74432;PMS7003;62865;53.146;23.172;2023-02-28T14:51:20;13.2;10.2;7
74432;PMS7003;62865;53.146;23.172;2023-02-28T14:56:43;11.8;10;6
74432;PMS7003;62865;53.146;23.172;2023-02-28T15:01:19;15.6;11.2;7.2
74432;PMS7003;62865;53.146;23.172;2023-02-28T15:06:19;13.4;12;6.8
74432;PMS7003;62865;53.146;23.172;2023-02-28T15:11:29;14.2;12;7.2
74432;PMS7003;62865;53.146;23.172;2023-02-28T15:16:40;15.8;12;7.8
74432;PMS7003;62865;53.146;23.172;2023-02-28T15:21:46;12.4;10.4;6.2
74432;PMS7003;62865;53.146;23.172;2023-02-28T15:26:39;13.8;11.2;7.8
74432;PMS7003;62865;53.146;23.172;2023-02-28T15:31:46;13.4;11.4;7.2
74432;PMS7003;62865;53.146;23.172;2023-02-28T15:36:19;14.2;12;8
74432;PMS7003;62865;53.146;23.172;2023-02-28T15:41:28;15;12.4;8.4
74432;PMS7003;62865;53.146;23.172;2023-02-28T15:46:19;16.4;12.4;8.4
74432;PMS7003;62865;53.146;23.172;2023-02-28T15:51:37;16.6;13.6;7.8
74432;PMS7003;62865;53.146;23.172;2023-02-28T15:56:22;15.6;13.6;9
74432;PMS7003;62865;53.146;23.172;2023-02-28T16:01:32;15;12;7.6
74432;PMS7003;62865;53.146;23.172;2023-02-28T16:06:43;14.8;12.8;7.8
74432;PMS7003;62865;53.146;23.172;2023-02-28T16:11:20;14.8;13.2;8.4
74432;PMS7003;62865;53.146;23.172;2023-02-28T16:16:29;13;12;8.4
74432;PMS7003;62865;53.146;23.172;2023-02-28T16:21:33;17;14;8.4
74432;PMS7003;62865;53.146;23.172;2023-02-28T16:26:21;17.2;15;9
74432;PMS7003;62865;53.146;23.172;2023-02-28T16:31:27;20.6;17.6;11.6
74432;PMS7003;62865;53.146;23.172;2023-02-28T16:36:20;23.2;20;13
74432;PMS7003;62865;53.146;23.172;2023-02-28T16:41:27;26.6;21.6;13.8
74432;PMS7003;62865;53.146;23.172;2023-02-28T16:46:34;25.8;21.2;13.8
74432;PMS7003;62865;53.146;23.172;2023-02-28T16:51:19;19.6;17.6;11.4
74432;PMS7003;62865;53.146;23.172;2023-02-28T16:56:27;25.2;19.2;12
74432;PMS7003;62865;53.146;23.172;2023-02-28T17:01:31;26.2;22.2;13.4
74432;PMS7003;62865;53.146;23.172;2023-02-28T17:06:29;27.2;21;13.2
74432;PMS7003;62865;53.146;23.172;2023-02-28T17:11:31;26.4;22;14.6
74432;PMS7003;62865;53.146;23.172;2023-02-28T17:16:20;26.2;22.8;14.2
74432;PMS7003;62865;53.146;23.172;2023-02-28T17:21:19;28.2;23.6;14.2
74432;PMS7003;62865;53.146;23.172;2023-02-28T17:26:20;28.4;22.8;14.8
74432;PMS7003;62865;53.146;23.172;2023-02-28T17:31:41;28;23.2;14.2
74432;PMS7003;62865;53.146;23.172;2023-02-28T17:36:29;27.2;23.4;15
74432;PMS7003;62865;53.146;23.172;2023-02-28T17:41:33;25;21.4;14.2
74432;PMS7003;62865;53.146;23.172;2023-02-28T17:46:20;25.4;21.4;14.8
74432;PMS7003;62865;53.146;23.172;2023-02-28T17:51:41;31.2;25.6;15.2
74432;PMS7003;62865;53.146;23.172;2023-02-28T17:56:29;27.6;25.6;15.8
74432;PMS7003;62865;53.146;23.172;2023-02-28T18:01:20;31.8;24.6;15.4
74432;PMS7003;62865;53.146;23.172;2023-02-28T18:06:20;34.3;28;17.3
74432;PMS7003;62865;53.146;23.172;2023-02-28T18:11:19;28.4;24.8;16.8
74432;PMS7003;62865;53.146;23.172;2023-02-28T18:16:20;29;23.8;14.8
74432;PMS7003;62865;53.146;23.172;2023-02-28T18:21:19;25.6;19.2;12.4
74432;PMS7003;62865;53.146;23.172;2023-02-28T18:26:19;22.6;19.2;11.6
74432;PMS7003;62865;53.146;23.172;2023-02-28T18:31:33;26.4;20.4;12.6
74432;PMS7003;62865;53.146;23.172;2023-02-28T18:36:27;23.6;20;11.6
74432;PMS7003;62865;53.146;23.172;2023-02-28T18:41:27;24.8;19;12.2
74432;PMS7003;62865;53.146;23.172;2023-02-28T18:46:41;22.6;19.2;11.4
74432;PMS7003;62865;53.146;23.172;2023-02-28T18:51:29;25.8;21.3;11.5
74432;PMS7003;62865;53.146;23.172;2023-02-28T18:56:33;25.6;19.8;12.8
74432;PMS7003;62865;53.146;23.172;2023-02-28T19:01:20;22;18.2;11.8
74432;PMS7003;62865;53.146;23.172;2023-02-28T19:06:19;27.8;23.4;13.8
74432;PMS7003;62865;53.146;23.172;2023-02-28T19:11:29;25.2;19.2;13.4
74432;PMS7003;62865;53.146;23.172;2023-02-28T19:16:31;25.4;19.8;13.4
74432;PMS7003;62865;53.146;23.172;2023-02-28T19:21:41;27.4;22.6;13.8
74432;PMS7003;62865;53.146;23.172;2023-02-28T19:26:20;29.4;22.6;14.8
74432;PMS7003;62865;53.146;23.172;2023-02-28T19:31:33;26.4;22.4;14.4
74432;PMS7003;62865;53.146;23.172;2023-02-28T19:36:29;30.4;24.2;14.2
74432;PMS7003;62865;53.146;23.172;2023-02-28T19:41:41;30.2;25;14.8
74432;PMS7003;62865;53.146;23.172;2023-02-28T19:46:28;28.2;25;15.4
74432;PMS7003;62865;53.146;23.172;2023-02-28T19:51:19;28.6;24.2;15.4
74432;PMS7003;62865;53.146;23.172;2023-02-28T19:56:33;29.2;23.6;15
74432;PMS7003;62865;53.146;23.172;2023-02-28T20:01:20;26.4;23;14.6
74432;PMS7003;62865;53.146;23.172;2023-02-28T20:06:31;23.6;19.4;11.2
74432;PMS7003;62865;53.146;23.172;2023-02-28T20:11:19;27.4;20.4;13.4
74432;PMS7003;62865;53.146;23.172;2023-02-28T20:16:41;27;22.2;12.4
74432;PMS7003;62865;53.146;23.172;2023-02-28T20:21:19;27.4;20.8;12.8
74432;PMS7003;62865;53.146;23.172;2023-02-28T20:26:49;27.6;21;13.4
74432;PMS7003;62865;53.146;23.172;2023-02-28T20:31:20;26.4;20.6;13.2
74432;PMS7003;62865;53.146;23.172;2023-02-28T20:36:41;23.4;20.8;12.8
74432;PMS7003;62865;53.146;23.172;2023-02-28T20:41:27;26;21.4;12.6
74432;PMS7003;62865;53.146;23.172;2023-02-28T20:46:33;25.6;21.8;13.2
74432;PMS7003;62865;53.146;23.172;2023-02-28T20:51:29;27.3;20.3;12.8
74432;PMS7003;62865;53.146;23.172;2023-02-28T20:56:20;24.8;20.6;13.4
74432;PMS7003;62865;53.146;23.172;2023-02-28T21:01:20;25.6;21.4;14
74432;PMS7003;62865;53.146;23.172;2023-02-28T21:06:29;28.8;21.4;13.4
74432;PMS7003;62865;53.146;23.172;2023-02-28T21:11:20;27.8;22.2;14.6
74432;PMS7003;62865;53.146;23.172;2023-02-28T21:16:51;27.6;23.8;15.4
74432;PMS7003;62865;53.146;23.172;2023-02-28T21:21:20;31;23.4;14.6
74432;PMS7003;62865;53.146;23.172;2023-02-28T21:26:41;28;21.8;13.6
74432;PMS7003;62865;53.146;23.172;2023-02-28T21:31:20;27;22.2;13.8
74432;PMS7003;62865;53.146;23.172;2023-02-28T21:36:20;27.4;22.6;14
74432;PMS7003;62865;53.146;23.172;2023-02-28T21:41:51;27.6;22.2;15.2
74432;PMS7003;62865;53.146;23.172;2023-02-28T21:46:20;27.4;22.2;13.6
74432;PMS7003;62865;53.146;23.172;2023-02-28T21:51:29;24.4;20.4;14.6
74432;PMS7003;62865;53.146;23.172;2023-02-28T21:56:20;27.4;22;14.2
74432;PMS7003;62865;53.146;23.172;2023-02-28T22:01:26;23.2;19.8;14.2
74432;PMS7003;62865;53.146;23.172;2023-02-28T22:06:43;24.2;21;13.2
74432;PMS7003;62865;53.146;23.172;2023-02-28T22:11:20;20.4;17.8;11.8
74432;PMS7003;62865;53.146;23.172;2023-02-28T22:16:19;21;18.4;12.2
74432;PMS7003;62865;53.146;23.172;2023-02-28T22:21:41;24.4;17.4;11
74432;PMS7003;62865;53.146;23.172;2023-02-28T22:26:33;25.2;19.2;11.8
74432;PMS7003;62865;53.146;23.172;2023-02-28T22:31:30;21.2;17.4;11.6
74432;PMS7003;62865;53.146;23.172;2023-02-28T22:36:29;17.4;14.6;9.6
74432;PMS7003;62865;53.146;23.172;2023-02-28T22:41:20;16;14.2;8.6
74432;PMS7003;62865;53.146;23.172;2023-02-28T22:46:41;20.8;15.4;10
74432;PMS7003;62865;53.146;23.172;2023-02-28T22:51:34;18.2;14.4;9.2
74432;PMS7003;62865;53.146;23.172;2023-02-28T22:56:20;17.8;13.4;8.6
74432;PMS7003;62865;53.146;23.172;2023-02-28T23:01:20;15.8;13.6;8.8
74432;PMS7003;62865;53.146;23.172;2023-02-28T23:06:21;16.6;13.6;9
74432;PMS7003;62865;53.146;23.172;2023-02-28T23:11:42;16;12.4;8.4
74432;PMS7003;62865;53.146;23.172;2023-02-28T23:16:19;17;12.8;9
74432;PMS7003;62865;53.146;23.172;2023-02-28T23:21:19;16.4;14.6;8.6
74432;PMS7003;62865;53.146;23.172;2023-02-28T23:26:19;18.4;13;8
74432;PMS7003;62865;53.146;23.172;2023-02-28T23:31:19;13.6;10.8;8
74432;PMS7003;62865;53.146;23.172;2023-02-28T23:36:25;16;13.2;8.4
74432;PMS7003;62865;53.146;23.172;2023-02-28T23:41:20;16.4;14.6;9.4
74432;PMS7003;62865;53.146;23.172;2023-02-28T23:46:25;13.2;11.8;8
74432;PMS7003;62865;53.146;23.172;2023-02-28T23:51:20;16.4;12.6;7.8
74432;PMS7003;62865;53.146;23.172;2023-02-28T23:56:25;16.2;12.8;8.6
